createdAt,value
2023-05-21T00:02:51.675Z,39.15
2023-05-21T00:06:53.117Z,41.17
2023-05-21T00:10:54.610Z,38.93
2023-05-21T00:14:56.034Z,39.37
2023-05-21T00:18:58.263Z,39.03
2023-05-21T00:23:02.861Z,38.89
2023-05-21T00:27:04.419Z,39.39
2023-05-21T00:31:06.291Z,39.05
2023-05-21T00:35:08.450Z,39.49
2023-05-21T00:39:09.902Z,39.71
2023-05-21T00:43:11.322Z,39.96
2023-05-21T00:47:13.803Z,40.06
2023-05-21T00:51:16.527Z,39.45
2023-05-21T00:55:18.463Z,39.73
2023-05-21T00:59:19.946Z,39.86
2023-05-21T01:03:23.179Z,40.08
2023-05-21T01:07:24.643Z,39.16
2023-05-21T01:11:39.341Z,39.76
2023-05-21T01:15:40.921Z,39.79
2023-05-21T01:19:44.501Z,40.17
2023-05-21T01:23:46.426Z,39.98
2023-05-21T01:27:47.856Z,40.00
2023-05-21T01:32:04.131Z,40.80
2023-05-21T01:36:27.163Z,40.39
2023-05-21T01:40:34.670Z,39.72
2023-05-21T01:44:37.396Z,40.34
2023-05-21T01:48:39.175Z,40.08
2023-05-21T01:52:49.008Z,39.89
2023-05-21T01:56:51.401Z,39.72
2023-05-21T02:00:52.997Z,40.14
2023-05-21T02:04:54.476Z,40.37
2023-05-21T02:08:56.486Z,40.68
2023-05-21T02:12:59.283Z,40.14
2023-05-21T02:17:00.935Z,40.86
2023-05-21T02:21:02.377Z,40.78
2023-05-21T02:25:04.618Z,40.54
2023-05-21T02:29:06.561Z,40.85
2023-05-21T02:33:09.154Z,40.29
2023-05-21T02:37:10.753Z,40.25
2023-05-21T02:41:12.441Z,40.28
2023-05-21T02:45:13.967Z,41.14
2023-05-21T02:49:15.416Z,40.46
2023-05-21T02:53:16.842Z,41.59
2023-05-21T02:57:18.371Z,41.11
2023-05-21T03:01:19.863Z,41.60
2023-05-21T03:05:21.631Z,42.37
2023-05-21T03:09:23.188Z,42.06
2023-05-21T03:13:24.596Z,41.22
2023-05-21T03:17:26.035Z,40.96
2023-05-21T03:21:30.165Z,41.07
2023-05-21T03:25:31.644Z,41.52
2023-05-21T03:29:33.591Z,41.18
2023-05-21T03:33:35.191Z,41.41
2023-05-21T03:37:36.664Z,41.20
2023-05-21T03:41:38.240Z,41.37
2023-05-21T03:45:42.110Z,41.36
2023-05-21T03:49:45.053Z,41.31
2023-05-21T03:53:46.601Z,41.56
2023-05-21T03:57:48.122Z,43.24
2023-05-21T04:01:49.545Z,42.21
2023-05-21T04:05:51.009Z,41.31
2023-05-21T04:09:52.988Z,40.99
2023-05-21T04:13:54.354Z,40.75
2023-05-21T04:17:55.773Z,41.42
2023-05-21T04:21:58.170Z,40.89
2023-05-21T04:26:01.521Z,41.12
2023-05-21T04:30:04.320Z,40.80
2023-05-21T04:34:06.297Z,40.68
2023-05-21T04:38:08.432Z,41.12
2023-05-21T04:42:11.011Z,40.57
2023-05-21T04:46:12.793Z,40.53
2023-05-21T04:50:14.646Z,40.41
2023-05-21T04:54:16.064Z,40.63
2023-05-21T04:58:18.964Z,40.77
2023-05-21T05:02:20.488Z,40.32
2023-05-21T05:06:22.222Z,40.22
2023-05-21T05:10:23.769Z,40.17
2023-05-21T05:14:25.129Z,39.69
2023-05-21T05:18:26.534Z,39.61
2023-05-21T05:22:27.862Z,39.40
2023-05-21T05:26:29.328Z,39.58
2023-05-21T05:30:30.853Z,39.46
2023-05-21T05:34:32.365Z,39.26
2023-05-21T05:38:34.466Z,39.40
2023-05-21T05:42:36.000Z,38.89
2023-05-21T05:46:37.572Z,39.70
2023-05-21T05:50:39.204Z,38.56
2023-05-21T05:54:40.524Z,39.21
2023-05-21T05:58:41.930Z,38.99
2023-05-21T06:02:43.529Z,38.51
2023-05-21T06:06:44.991Z,37.75
2023-05-21T06:10:46.433Z,37.23
2023-05-21T06:14:49.067Z,37.02
2023-05-21T06:18:50.544Z,36.74
2023-05-21T06:22:52.015Z,37.35
2023-05-21T06:26:53.410Z,36.34
2023-05-21T06:30:54.942Z,35.90
2023-05-21T06:34:56.272Z,35.95
2023-05-21T06:38:57.705Z,35.43
2023-05-21T06:42:59.944Z,34.81
2023-05-21T06:47:01.488Z,32.89
2023-05-21T06:51:03.200Z,31.62
2023-05-21T06:55:04.974Z,29.45
2023-05-21T06:59:06.332Z,29.00
2023-05-21T07:03:07.955Z,27.51
2023-05-21T07:07:10.536Z,27.38
2023-05-21T07:11:12.132Z,27.82
2023-05-21T07:15:13.545Z,27.30
2023-05-21T07:19:15.530Z,27.45
2023-05-21T07:23:17.003Z,28.36
2023-05-21T07:31:26.054Z,27.74
2023-05-21T07:35:27.584Z,27.17
2023-05-21T07:39:29.008Z,27.09
2023-05-21T07:43:31.667Z,26.87
2023-05-21T07:47:33.143Z,26.99
2023-05-21T07:51:34.726Z,28.05
2023-05-21T07:55:36.472Z,27.86
2023-05-21T07:59:38.134Z,26.87
2023-05-21T08:03:39.760Z,26.47
2023-05-21T08:07:41.305Z,28.79
2023-05-21T08:11:42.861Z,27.90
2023-05-21T08:15:44.365Z,26.68
2023-05-21T08:19:45.825Z,25.93
2023-05-21T08:23:47.204Z,25.26
2023-05-21T08:27:49.883Z,24.79
2023-05-21T08:31:52.521Z,23.87
2023-05-21T08:35:54.267Z,23.65
2023-05-21T08:39:55.792Z,25.46
2023-05-21T08:44:00.221Z,24.56
2023-05-21T08:48:01.948Z,23.19
2023-05-21T08:52:04.705Z,22.72
2023-05-21T08:56:06.892Z,23.30
2023-05-21T09:00:08.838Z,24.35
2023-05-21T09:04:20.276Z,23.95
2023-05-21T09:08:29.748Z,24.03
2023-05-21T09:12:32.011Z,23.02
2023-05-21T09:16:33.453Z,25.68
2023-05-21T09:20:35.025Z,25.47
2023-05-21T09:24:36.647Z,23.17
2023-05-21T09:28:38.003Z,24.81
2023-05-21T09:32:40.653Z,22.03
2023-05-21T09:36:43.727Z,20.74
2023-05-21T09:40:47.772Z,20.46
2023-05-21T09:44:49.351Z,21.61
2023-05-21T09:48:50.758Z,20.89
2023-05-21T09:52:55.549Z,20.87
2023-05-21T09:56:57.007Z,20.58
2023-05-21T10:00:58.984Z,27.98
2023-05-21T10:05:00.537Z,23.48
2023-05-21T10:09:06.970Z,24.01
2023-05-21T10:13:12.590Z,22.90
2023-05-21T10:17:14.621Z,27.72
2023-05-21T10:21:16.857Z,24.34
2023-05-21T10:25:18.958Z,22.23
2023-05-21T10:29:21.144Z,22.09
2023-05-21T10:33:24.206Z,26.58
2023-05-21T10:37:27.495Z,22.67
2023-05-21T10:41:38.485Z,22.49
2023-05-21T10:45:50.862Z,22.70
2023-05-21T10:49:52.158Z,21.32
2023-05-21T10:54:24.693Z,23.79
2023-05-21T10:59:01.881Z,22.38
2023-05-21T11:03:04.779Z,22.79
2023-05-21T11:07:06.434Z,22.11
2023-05-21T11:11:08.241Z,22.39
2023-05-21T11:15:16.268Z,21.52
2023-05-21T11:19:18.210Z,21.22
2023-05-21T11:23:20.940Z,24.34
2023-05-21T11:27:41.957Z,20.28
2023-05-21T11:31:48.403Z,19.86
2023-05-21T11:35:49.962Z,19.62
2023-05-21T11:39:51.728Z,19.80
2023-05-21T11:44:01.045Z,20.86
2023-05-21T11:48:03.408Z,19.65
2023-05-21T11:52:12.558Z,20.60
2023-05-21T11:56:14.264Z,19.98
2023-05-21T12:00:17.517Z,20.70
2023-05-21T12:04:19.744Z,22.62
2023-05-21T12:08:26.933Z,25.96
2023-05-21T12:12:38.523Z,22.36
2023-05-21T12:16:44.242Z,22.03
2023-05-21T12:20:45.825Z,23.05
2023-05-21T12:24:48.589Z,22.94
2023-05-21T12:28:50.070Z,23.74
2023-05-21T12:32:51.523Z,24.30
2023-05-21T12:36:53.102Z,23.65
2023-05-21T12:40:54.535Z,29.06
2023-05-21T12:44:56.888Z,27.40
2023-05-21T12:48:58.358Z,26.09
2023-05-21T12:52:59.887Z,25.68
2023-05-21T12:57:14.670Z,25.90
2023-05-21T13:01:16.130Z,28.53
2023-05-21T13:05:18.337Z,28.33
2023-05-21T13:09:19.821Z,26.51
2023-05-21T13:13:21.204Z,29.01
2023-05-21T13:17:23.675Z,28.14
2023-05-21T13:21:25.117Z,29.37
2023-05-21T13:25:30.011Z,30.17
2023-05-21T13:29:31.547Z,28.24
2023-05-21T13:33:33.207Z,27.89
2023-05-21T13:37:38.109Z,27.42
2023-05-21T13:41:39.563Z,27.77
2023-05-21T13:45:41.039Z,26.89
2023-05-21T13:49:42.527Z,26.45
2023-05-21T13:53:43.864Z,27.24
2023-05-21T13:57:46.071Z,27.99
2023-05-21T14:01:49.812Z,27.47
2023-05-21T14:05:53.636Z,27.15
2023-05-21T14:09:55.965Z,26.76
2023-05-21T14:13:58.315Z,27.02
2023-05-21T14:17:59.779Z,26.74
2023-05-21T14:22:01.303Z,28.72
2023-05-21T14:26:02.912Z,28.30
2023-05-21T14:30:05.136Z,26.47
2023-05-21T14:34:09.567Z,26.55
2023-05-21T14:38:11.238Z,27.01
2023-05-21T14:42:12.617Z,27.39
2023-05-21T14:46:14.046Z,27.04
2023-05-21T14:50:16.323Z,27.62
2023-05-21T14:54:17.848Z,27.54
2023-05-21T14:58:19.407Z,28.40
2023-05-21T15:02:20.836Z,28.32
2023-05-21T15:06:22.436Z,28.88
2023-05-21T15:10:25.222Z,28.06
2023-05-21T15:14:26.646Z,27.66
2023-05-21T15:18:29.272Z,27.95
2023-05-21T15:22:34.156Z,29.14
2023-05-21T15:26:35.600Z,28.56
2023-05-21T15:30:39.746Z,28.14
2023-05-21T15:34:41.305Z,28.93
2023-05-21T15:38:42.756Z,28.45
2023-05-21T15:42:44.324Z,27.78
2023-05-21T15:46:45.828Z,28.18
2023-05-21T15:50:47.304Z,27.76
2023-05-21T15:54:48.737Z,27.61
2023-05-21T15:58:50.275Z,27.85
2023-05-21T16:02:51.805Z,27.45
2023-05-21T16:06:53.277Z,28.19
2023-05-21T16:10:54.779Z,27.44
2023-05-21T16:14:56.202Z,29.81
2023-05-21T16:18:57.600Z,28.41
2023-05-21T16:22:59.021Z,27.47
2023-05-21T16:27:00.725Z,28.17
2023-05-21T16:31:02.704Z,27.10
2023-05-21T16:35:04.536Z,27.55
2023-05-21T16:39:06.270Z,30.00
2023-05-21T16:43:10.534Z,30.42
2023-05-21T16:47:11.906Z,31.25
2023-05-21T16:51:13.339Z,32.81
2023-05-21T16:55:15.682Z,33.53
2023-05-21T16:59:17.090Z,33.26
2023-05-21T17:03:18.641Z,35.92
2023-05-21T17:07:20.264Z,38.56
2023-05-21T17:11:21.784Z,38.68
2023-05-21T17:15:23.196Z,39.53
2023-05-21T17:19:24.637Z,41.90
2023-05-21T17:23:26.048Z,41.97
2023-05-21T17:27:27.507Z,41.95
2023-05-21T17:31:32.273Z,42.34
2023-05-21T17:35:34.023Z,59.05
2023-05-21T17:39:35.629Z,53.86
2023-05-21T17:43:37.179Z,53.07
2023-05-21T17:47:38.589Z,50.94
2023-05-21T17:51:40.064Z,51.22
2023-05-21T17:55:41.397Z,50.97
2023-05-21T17:59:45.083Z,50.47
2023-05-21T18:03:46.966Z,50.09
2023-05-21T18:07:48.432Z,50.89
2023-05-21T18:11:49.920Z,50.18
2023-05-21T18:15:51.372Z,50.00
2023-05-21T18:19:52.766Z,50.03
2023-05-21T18:23:55.112Z,49.62
2023-05-21T18:27:56.591Z,49.23
2023-05-21T18:31:58.001Z,49.67
2023-05-21T18:35:59.702Z,48.78
2023-05-21T18:40:01.241Z,48.61
2023-05-21T18:44:02.822Z,47.98
2023-05-21T18:48:04.605Z,47.09
2023-05-21T18:52:06.401Z,46.94
2023-05-21T18:56:09.883Z,47.05
2023-05-21T19:00:12.654Z,47.02
2023-05-21T19:04:14.129Z,47.33
2023-05-21T19:08:15.649Z,46.52
2023-05-21T19:12:17.121Z,45.25
2023-05-21T19:16:18.533Z,45.92
2023-05-21T19:20:24.526Z,45.09
2023-05-21T19:24:26.217Z,43.98
2023-05-21T19:28:27.643Z,44.72
2023-05-21T19:32:29.060Z,44.74
2023-05-21T19:36:40.802Z,44.31
2023-05-21T19:40:50.317Z,44.09
2023-05-21T19:44:51.808Z,44.45
2023-05-21T19:48:53.263Z,44.34
2023-05-21T19:52:56.996Z,44.59
2023-05-21T19:56:58.590Z,44.76
2023-05-21T20:01:00.334Z,44.89
2023-05-21T20:05:01.889Z,44.45
2023-05-21T20:09:07.232Z,44.13
2023-05-21T20:13:09.064Z,43.79
2023-05-21T20:17:11.662Z,44.63
2023-05-21T20:21:20.041Z,43.78
2023-05-21T20:25:21.481Z,44.59
2023-05-21T20:29:22.880Z,44.47
2023-05-21T20:33:25.390Z,43.90
2023-05-21T20:37:26.748Z,44.05
2023-05-21T20:41:35.718Z,44.41
2023-05-21T20:45:39.253Z,44.05
2023-05-21T20:49:40.746Z,44.44
2023-05-21T20:53:42.590Z,45.34
2023-05-21T20:57:43.981Z,44.55
2023-05-21T21:01:45.434Z,44.64
2023-05-21T21:05:47.182Z,45.31
2023-05-21T21:09:49.231Z,44.95
2023-05-21T21:13:50.978Z,44.51
2023-05-21T21:17:52.526Z,45.62
2023-05-21T21:21:54.205Z,45.81
2023-05-21T21:25:56.409Z,46.38
2023-05-21T21:29:57.881Z,45.97
2023-05-21T21:33:59.546Z,46.14
2023-05-21T21:38:01.408Z,46.25
2023-05-21T21:42:02.972Z,46.27
2023-05-21T21:46:04.369Z,46.79
2023-05-21T21:50:06.728Z,46.83
2023-05-21T21:54:08.208Z,46.78
2023-05-21T21:58:09.564Z,46.97
2023-05-21T22:02:11.038Z,46.74
2023-05-21T22:06:15.442Z,46.74
2023-05-21T22:10:17.929Z,46.75
2023-05-21T22:14:19.375Z,46.85
2023-05-21T22:18:38.772Z,46.81
2023-05-21T22:22:41.472Z,47.14
2023-05-21T22:26:43.410Z,46.58
2023-05-21T22:30:44.856Z,47.21
2023-05-21T22:34:46.309Z,47.63
2023-05-21T22:38:47.736Z,47.57
2023-05-21T22:42:52.012Z,47.44
2023-05-21T22:46:54.364Z,47.93
2023-05-21T22:50:58.075Z,47.60
2023-05-21T22:55:00.507Z,47.67
2023-05-21T22:59:02.053Z,48.09
2023-05-21T23:03:04.499Z,48.04
2023-05-21T23:07:06.046Z,47.71
2023-05-21T23:11:07.578Z,48.01
2023-05-21T23:15:09.787Z,48.00
2023-05-21T23:19:14.493Z,48.15
2023-05-21T23:23:15.988Z,47.99
2023-05-21T23:27:17.528Z,48.19
2023-05-21T23:31:18.972Z,48.28
2023-05-21T23:35:20.513Z,48.43
2023-05-21T23:39:22.207Z,48.29
2023-05-21T23:43:23.642Z,48.15
2023-05-21T23:47:25.840Z,48.20
2023-05-21T23:51:27.359Z,48.11
2023-05-21T23:55:28.721Z,47.94
2023-05-21T23:59:33.101Z,48.16
